Time;durP1;ratioP1;P1;durP2;ratioP2;P2;SDS_P1;SDS_P2;PMS_P1;PMS_P2;Temp;Humidity;BMP_temperature;BMP_pressure;BME280_temperature;BME280_humidity;BME280_pressure;Samples;Min_cycle;Max_cycle;Signal;HPM_P1;HPM_P2
2022/11/09 00:00:45;;;;;;;;;4.67;4.67;;;;;14.56;70.82;99999.59;5076990;28;45309;-64
2022/11/09 00:03:10;;;;;;;;;6.67;4.33;;;;;14.55;70.77;100004.97;5077076;28;46087;-63
2022/11/09 00:05:36;;;;;;;;;3.67;3.00;;;;;14.55;70.76;100003.16;5077340;28;45396;-63
2022/11/09 00:08:04;;;;;;;;;5.00;4.00;;;;;14.54;70.35;99998.00;5077336;28;45364;-63
2022/11/09 00:10:31;;;;;;;;;5.00;5.00;;;;;14.56;71.15;99999.59;5076885;28;45516;-63
2022/11/09 00:12:57;;;;;;;;;7.00;4.00;;;;;14.57;70.99;100008.38;5077103;27;45458;-64
2022/11/09 00:15:22;;;;;;;;;5.00;5.00;;;;;14.60;70.84;100012.63;5076647;28;45623;-63
2022/11/09 00:17:47;;;;;;;;;3.67;3.33;;;;;14.57;70.53;100013.69;5077261;28;45390;-64
2022/11/09 00:20:13;;;;;;;;;7.00;3.67;;;;;14.57;71.06;100021.63;5077221;28;45359;-64
2022/11/09 00:22:38;;;;;;;;;5.00;4.00;;;;;14.60;72.13;100028.50;5077043;28;45387;-64
2022/11/09 00:25:04;;;;;;;;;3.67;3.33;;;;;14.58;72.51;100025.94;5076078;28;53243;-63
2022/11/09 00:27:29;;;;;;;;;6.00;5.00;;;;;14.56;72.78;100019.88;5077030;28;45347;-63
2022/11/09 00:29:54;;;;;;;;;4.00;3.33;;;;;14.54;72.09;100011.22;5075667;28;45373;-63
2022/11/09 00:32:19;;;;;;;;;4.00;3.00;;;;;14.53;73.20;99980.38;5075917;28;47551;-63
2022/11/09 00:34:45;;;;;;;;;4.00;3.00;;;;;14.52;72.71;99971.59;5075612;28;45520;-63
2022/11/09 00:37:10;;;;;;;;;5.00;3.67;;;;;14.49;72.81;99968.28;5075740;28;45396;-63
2022/11/09 00:39:36;;;;;;;;;4.67;4.00;;;;;14.45;73.15;99964.09;5075414;28;45679;-63
2022/11/09 00:42:01;;;;;;;;;2.67;2.67;;;;;14.44;73.08;99973.84;5076884;28;46186;-63
2022/11/09 00:44:26;;;;;;;;;4.67;3.33;;;;;14.40;72.61;99971.47;5075894;28;45355;-63
2022/11/09 00:46:51;;;;;;;;;4.33;3.00;;;;;14.41;73.18;99975.84;5076769;28;47275;-63
2022/11/09 00:49:17;;;;;;;;;5.00;3.00;;;;;14.39;73.47;99980.38;5056625;28;45671;-64
2022/11/09 00:51:42;;;;;;;;;1.00;1.00;;;;;14.34;73.16;99967.41;5076456;28;45408;-64
2022/11/09 00:54:08;;;;;;;;;4.33;3.00;;;;;14.35;72.51;99961.19;5076790;28;45445;-63
2022/11/09 00:56:34;;;;;;;;;3.33;3.33;;;;;14.34;73.07;99965.59;5058323;28;45452;-64
2022/11/09 00:58:59;;;;;;;;;3.00;2.00;;;;;14.31;73.64;99965.81;5076778;28;45557;-63
2022/11/09 01:01:24;;;;;;;;;3.00;3.00;;;;;14.32;72.87;99967.53;5075640;28;48655;-63
2022/11/09 01:03:50;;;;;;;;;3.67;2.67;;;;;14.31;72.71;99968.44;5075943;28;45440;-63
2022/11/09 01:06:20;;;;;;;;;5.00;2.33;;;;;14.30;72.69;99972.03;5075851;28;45454;-63
2022/11/09 01:08:46;;;;;;;;;5.00;2.33;;;;;14.31;73.41;99976.38;5075045;28;45552;-63
2022/11/09 01:11:12;;;;;;;;;3.00;3.00;;;;;14.32;73.29;99982.53;5071531;28;45533;-63
2022/11/09 01:13:37;;;;;;;;;3.00;3.00;;;;;14.31;73.21;99989.59;5057086;28;45624;-63
2022/11/09 01:16:10;;;;;;;;;2.00;2.00;;;;;14.27;72.68;99985.47;5076146;28;45516;-63
2022/11/09 01:18:37;;;;;;;;;3.00;3.00;;;;;14.34;72.81;99992.06;5077220;28;45603;-63
2022/11/09 01:21:04;;;;;;;;;2.33;2.33;;;;;14.33;73.02;99998.31;5076246;28;45485;-64
2022/11/09 01:23:31;;;;;;;;;2.33;2.33;;;;;14.32;73.07;99993.13;5057915;28;45375;-64
2022/11/09 01:26:02;;;;;;;;;2.67;2.00;;;;;14.30;72.57;100008.22;5076165;28;45437;-64
2022/11/09 01:28:27;;;;;;;;;1.33;1.33;;;;;14.27;72.50;100001.34;5075727;28;45449;-63
2022/11/09 01:30:53;;;;;;;;;3.00;2.00;;;;;14.24;72.70;100000.66;5075923;28;45418;-63
2022/11/09 01:33:19;;;;;;;;;3.00;3.00;;;;;14.20;72.91;100007.06;5076057;28;45581;-63
2022/11/09 01:35:44;;;;;;;;;6.67;2.33;;;;;14.19;72.61;100019.47;5076055;28;45403;-63
2022/11/09 01:38:10;;;;;;;;;2.00;2.00;;;;;14.15;72.57;100016.13;5057995;28;45599;-63
2022/11/09 01:40:38;;;;;;;;;3.33;2.00;;;;;14.14;73.06;100025.00;5075454;28;45455;-63
2022/11/09 01:43:20;;;;;;;;;2.67;1.33;;;;;14.12;72.72;100029.53;5075993;28;45405;-64
2022/11/09 01:46:00;;;;;;;;;3.33;1.67;;;;;14.11;72.68;100035.78;5076020;28;45493;-63
2022/11/09 01:48:44;;;;;;;;;3.00;1.33;;;;;14.11;72.96;100040.22;5075233;27;45475;-63
2022/11/09 01:51:17;;;;;;;;;4.33;2.00;;;;;14.11;73.02;100037.56;5075065;28;46277;-63
2022/11/09 01:53:48;;;;;;;;;2.33;2.00;;;;;14.08;72.67;100045.69;5075858;28;45466;-63
2022/11/09 01:56:14;;;;;;;;;2.00;2.00;;;;;14.06;72.78;100037.00;5074954;28;45449;-63
2022/11/09 01:58:46;;;;;;;;;1.00;1.00;;;;;14.06;72.29;100048.41;5074383;28;45467;-64
2022/11/09 02:01:14;;;;;;;;;2.67;2.67;;;;;14.06;72.59;100047.56;5078604;28;45400;-63
2022/11/09 02:03:45;;;;;;;;;3.33;3.33;;;;;14.03;72.41;100048.59;5058936;28;45675;-63
2022/11/09 02:06:15;;;;;;;;;3.00;3.00;;;;;14.03;72.60;100047.75;5079479;28;45339;-64
2022/11/09 02:08:42;;;;;;;;;3.00;3.00;;;;;14.03;72.23;100058.31;5079384;28;45398;-63
2022/11/09 02:11:11;;;;;;;;;4.00;2.67;;;;;14.03;72.09;100051.25;5079093;28;46480;-64
2022/11/09 02:13:40;;;;;;;;;3.00;3.00;;;;;13.99;71.94;100059.44;5060828;28;45336;-63
2022/11/09 02:16:07;;;;;;;;;1.00;1.00;;;;;13.95;73.00;100050.00;5079011;28;45492;-63
2022/11/09 02:18:33;;;;;;;;;1.00;1.00;;;;;13.93;72.55;100050.91;5079437;28;45458;-63
2022/11/09 02:20:58;;;;;;;;;3.33;1.00;;;;;13.92;71.79;100056.31;5079023;28;46110;-63
2022/11/09 02:23:28;;;;;;;;;2.33;2.33;;;;;13.88;72.50;100058.25;5077445;28;45545;-63
2022/11/09 02:25:58;;;;;;;;;3.67;2.67;;;;;13.85;72.20;100044.38;5079232;28;45552;-64
2022/11/09 02:28:26;;;;;;;;;3.00;3.00;;;;;13.83;72.46;100046.25;5078778;28;45349;-63
2022/11/09 02:30:54;;;;;;;;;2.67;1.33;;;;;13.83;71.95;100043.59;5079064;28;45426;-64
2022/11/09 02:33:20;;;;;;;;;3.67;2.00;;;;;13.81;72.40;100043.72;5078976;28;45558;-63
2022/11/09 02:35:46;;;;;;;;;2.67;2.67;;;;;13.83;72.11;100038.31;5060631;28;45470;-63
2022/11/09 02:38:13;;;;;;;;;3.00;3.00;;;;;13.83;72.20;100046.25;5078417;28;45421;-63
2022/11/09 02:40:43;;;;;;;;;3.67;2.00;;;;;13.80;71.82;100051.72;5078727;28;45406;-63
2022/11/09 02:43:10;;;;;;;;;5.00;3.00;;;;;13.76;72.28;100045.75;5078109;28;45408;-64
2022/11/09 02:45:36;;;;;;;;;3.67;2.00;;;;;13.77;72.23;100050.09;5077827;28;45626;-63
2022/11/09 02:48:01;;;;;;;;;2.33;2.00;;;;;13.72;72.34;100043.38;5078084;28;45594;-64
2022/11/09 02:50:27;;;;;;;;;2.33;1.33;;;;;13.69;71.49;100054.97;5077325;28;45584;-64
2022/11/09 02:52:52;;;;;;;;;2.00;2.00;;;;;13.72;71.93;100059.22;5078824;28;45560;-63
2022/11/09 02:55:18;;;;;;;;;3.00;2.00;;;;;13.71;71.08;100058.38;5078839;28;45454;-63
2022/11/09 02:57:43;;;;;;;;;1.33;1.00;;;;;13.70;71.54;100057.53;5078837;28;45350;-63
2022/11/09 03:00:10;;;;;;;;;0.67;0.00;;;;;13.66;71.74;100063.91;5078568;28;45505;-63
2022/11/09 03:02:35;;;;;;;;;2.00;2.00;;;;;13.65;71.00;100067.50;5069929;28;45434;-64
2022/11/09 03:05:01;;;;;;;;;2.00;2.00;;;;;13.62;71.14;100070.34;5078745;28;45458;-63
2022/11/09 03:07:26;;;;;;;;;2.67;1.67;;;;;13.61;71.33;100073.91;5077268;28;45434;-63
2022/11/09 03:09:52;;;;;;;;;1.00;1.00;;;;;13.61;71.02;100073.06;5078247;28;45950;-64
2022/11/09 03:12:30;;;;;;;;;2.67;1.67;;;;;13.57;70.40;100076.81;5076924;28;45525;-64
2022/11/09 03:15:03;;;;;;;;;4.00;1.00;;;;;13.56;71.24;100083.03;5078091;28;45407;-63
2022/11/09 03:17:30;;;;;;;;;0.33;0.33;;;;;13.59;70.81;100072.28;5077975;28;45495;-63
2022/11/09 03:19:56;;;;;;;;;0.00;0.00;;;;;13.55;70.69;100068.13;5078832;28;46295;-63
2022/11/09 03:22:21;;;;;;;;;3.00;2.33;;;;;13.56;71.05;100069.81;5077537;28;51205;-63
2022/11/09 03:24:46;;;;;;;;;0.00;0.00;;;;;13.55;70.66;100073.41;5045655;28;45411;-63
2022/11/09 03:27:12;;;;;;;;;1.67;0.00;;;;;13.51;70.62;100079.78;5078337;28;45598;-63
2022/11/09 03:29:38;;;;;;;;;1.00;1.00;;;;;13.48;70.65;100076.38;5077334;28;45462;-63
2022/11/09 03:32:04;;;;;;;;;0.33;0.33;;;;;13.49;70.55;100079.88;5078081;28;45340;-63
2022/11/09 03:34:29;;;;;;;;;0.00;0.00;;;;;13.51;70.84;100085.91;5077658;28;45428;-64
2022/11/09 03:36:54;;;;;;;;;1.67;0.00;;;;;13.49;70.69;100079.88;5077884;28;45380;-63
2022/11/09 03:39:20;;;;;;;;;0.00;0.00;;;;;13.50;70.85;100088.66;5077448;28;45387;-63
2022/11/09 03:41:45;;;;;;;;;1.00;1.00;;;;;13.44;70.77;100093.34;5077895;28;45363;-63
2022/11/09 03:44:10;;;;;;;;;2.00;1.00;;;;;13.46;70.71;100091.47;5076897;28;45373;-67
2022/11/09 03:46:36;;;;;;;;;1.33;0.00;;;;;13.46;70.31;100090.63;5077785;28;45367;-64
2022/11/09 03:49:01;;;;;;;;;1.00;1.00;;;;;13.45;70.56;100092.41;5077265;28;55370;-63
2022/11/09 03:51:26;;;;;;;;;0.00;0.00;;;;;13.44;70.61;100090.69;5077258;28;45367;-63
2022/11/09 03:53:52;;;;;;;;;0.33;0.33;;;;;13.43;70.90;100086.38;5077958;28;45738;-63
2022/11/09 03:56:17;;;;;;;;;0.00;0.00;;;;;13.39;70.42;100086.63;5077845;28;45566;-63
2022/11/09 03:58:42;;;;;;;;;0.00;0.00;;;;;13.36;70.16;100089.44;5077573;28;46186;-64
2022/11/09 04:01:09;;;;;;;;;0.00;0.00;;;;;13.35;70.60;100096.50;5077738;28;45475;-63
2022/11/09 04:03:35;;;;;;;;;0.00;0.00;;;;;13.37;70.61;100106.97;5058424;28;45401;-63
2022/11/09 04:06:00;;;;;;;;;1.00;1.00;;;;;13.37;70.47;100102.53;5077820;28;45422;-63
2022/11/09 04:08:25;;;;;;;;;1.00;1.00;;;;;13.36;70.71;100106.13;5077096;28;45578;-63
2022/11/09 04:10:51;;;;;;;;;0.00;0.00;;;;;13.34;70.60;100100.06;5076593;28;45717;-63
2022/11/09 04:13:16;;;;;;;;;0.00;0.00;;;;;13.32;70.71;100106.38;5077640;27;45515;-63
2022/11/09 04:15:42;;;;;;;;;1.00;0.00;;;;;13.31;70.65;100108.16;5076700;28;45603;-63
2022/11/09 04:18:11;;;;;;;;;1.00;1.00;;;;;13.26;70.87;100102.28;5076720;28;46316;-64
2022/11/09 04:20:37;;;;;;;;;0.00;0.00;;;;;13.28;70.84;100120.69;5077706;28;45716;-63
2022/11/09 04:23:04;;;;;;;;;0.00;0.00;;;;;13.28;71.04;100123.31;5076979;28;45457;-63
2022/11/09 04:25:35;;;;;;;;;1.00;0.00;;;;;13.27;70.61;100114.53;5075947;28;45544;-63
2022/11/09 04:28:03;;;;;;;;;1.00;1.00;;;;;13.25;71.33;100121.66;5075242;28;46197;-63
2022/11/09 04:30:30;;;;;;;;;2.33;1.33;;;;;13.22;70.96;100122.69;5076080;28;45465;-63
2022/11/09 04:32:57;;;;;;;;;0.00;0.00;;;;;13.19;70.88;100121.97;5077127;28;45487;-63
2022/11/09 04:35:23;;;;;;;;;0.67;0.00;;;;;13.17;71.09;100127.34;5077082;28;45403;-63
2022/11/09 04:37:57;;;;;;;;;0.00;0.00;;;;;13.17;71.12;100127.34;5076936;28;45472;-63
2022/11/09 04:40:25;;;;;;;;;1.00;1.00;;;;;13.17;71.36;100131.78;5077077;28;45422;-63
2022/11/09 04:42:50;;;;;;;;;1.00;1.00;;;;;13.15;71.72;100138.94;5076868;28;45386;-63
2022/11/09 04:45:15;;;;;;;;;1.00;0.00;;;;;13.14;71.57;100138.09;5076124;28;45359;-63
2022/11/09 04:47:41;;;;;;;;;1.00;1.00;;;;;13.12;71.37;100139.94;5076874;28;45555;-63
2022/11/09 04:50:07;;;;;;;;;0.00;0.00;;;;;13.12;71.60;100136.47;5075820;28;45504;-63
2022/11/09 04:52:32;;;;;;;;;2.00;2.00;;;;;13.12;71.61;100132.03;5077004;28;45418;-64
2022/11/09 04:54:57;;;;;;;;;0.00;0.00;;;;;13.14;71.99;100143.38;5076607;28;45666;-63
2022/11/09 04:57:23;;;;;;;;;1.00;0.00;;;;;13.13;71.48;100143.44;5058350;28;47317;-63
2022/11/09 04:59:48;;;;;;;;;0.67;0.33;;;;;13.15;71.67;100155.63;5076591;28;45553;-63
2022/11/09 05:02:14;;;;;;;;;1.33;1.33;;;;;13.13;71.51;100148.72;5076592;28;45452;-63
2022/11/09 05:04:39;;;;;;;;;0.00;0.00;;;;;13.13;71.88;100151.34;5076404;28;45474;-63
2022/11/09 05:07:05;;;;;;;;;2.00;1.00;;;;;13.12;71.32;100139.09;5076254;28;50220;-63
2022/11/09 05:09:30;;;;;;;;;0.67;0.67;;;;;13.14;71.52;100145.16;5075519;28;45438;-63
2022/11/09 05:11:55;;;;;;;;;1.33;1.33;;;;;13.13;71.56;100146.06;5076531;28;45409;-63
2022/11/09 05:14:20;;;;;;;;;1.00;1.00;;;;;13.13;71.52;100152.22;5075530;28;51170;-63
2022/11/09 05:16:46;;;;;;;;;2.67;1.00;;;;;13.13;71.66;100144.28;5057727;28;45465;-63
2022/11/09 05:19:11;;;;;;;;;2.00;2.00;;;;;13.11;71.50;100143.53;5076494;28;45363;-63
2022/11/09 05:21:38;;;;;;;;;1.33;0.00;;;;;13.13;71.63;100154.00;5076335;28;45416;-63
2022/11/09 05:24:03;;;;;;;;;0.00;0.00;;;;;13.12;71.61;100158.44;5076261;28;45371;-63
2022/11/09 05:26:32;;;;;;;;;0.00;0.00;;;;;13.12;71.56;100157.59;5076079;28;45326;-63
2022/11/09 05:28:59;;;;;;;;;2.67;0.33;;;;;13.12;71.42;100152.31;5057629;28;45410;-64
2022/11/09 05:31:26;;;;;;;;;0.00;0.00;;;;;13.12;71.51;100144.38;5076123;28;45391;-64
2022/11/09 05:33:52;;;;;;;;;1.67;1.33;;;;;13.12;71.70;100147.88;5075455;28;45361;-63
2022/11/09 05:36:18;;;;;;;;;1.00;1.00;;;;;13.12;71.63;100149.66;5056738;28;48035;-63
2022/11/09 05:38:43;;;;;;;;;2.67;1.33;;;;;13.12;72.10;100155.78;5057305;28;45458;-63
2022/11/09 05:41:09;;;;;;;;;1.00;1.00;;;;;13.13;71.95;100157.50;5076404;28;45373;-63
2022/11/09 05:43:34;;;;;;;;;2.00;2.00;;;;;13.15;71.49;100154.78;5075740;28;45565;-63
2022/11/09 05:46:00;;;;;;;;;2.00;2.00;;;;;13.14;71.78;100153.94;5075904;28;46302;-64
2022/11/09 05:48:25;;;;;;;;;4.67;2.00;;;;;13.15;72.21;100157.41;5075878;28;45510;-63
2022/11/09 05:50:50;;;;;;;;;1.33;1.33;;;;;13.14;71.93;100158.38;5075593;28;45386;-63
2022/11/09 05:53:16;;;;;;;;;2.00;1.67;;;;;13.14;72.19;100155.72;5057175;28;45466;-63
2022/11/09 05:55:41;;;;;;;;;3.33;1.67;;;;;13.14;72.29;100164.50;5075658;28;45427;-63
2022/11/09 05:58:07;;;;;;;;;5.00;3.00;;;;;13.16;72.35;100169.69;5075719;28;45452;-63
2022/11/09 06:00:32;;;;;;;;;2.00;2.00;;;;;13.15;72.54;100173.25;5075220;28;45462;-64
2022/11/09 06:03:06;;;;;;;;;2.00;2.00;;;;;13.14;73.06;100179.50;5075493;28;45682;-63
2022/11/09 06:05:33;;;;;;;;;3.67;2.67;;;;;13.13;72.46;100180.41;5075049;28;45354;-63
2022/11/09 06:08:04;;;;;;;;;5.00;4.00;;;;;13.09;72.81;100177.09;5075015;28;45561;-63
2022/11/09 06:10:29;;;;;;;;;2.00;2.00;;;;;13.09;73.24;100174.44;5074480;28;45329;-63
2022/11/09 06:12:54;;;;;;;;;2.00;2.00;;;;;13.09;73.17;100163.03;5074691;28;45418;-63
2022/11/09 06:15:20;;;;;;;;;1.67;1.67;;;;;13.11;73.28;100171.69;5075020;28;45412;-63
2022/11/09 06:17:51;;;;;;;;;3.00;3.00;;;;;13.10;72.83;100172.66;5075221;28;45346;-63
2022/11/09 06:20:16;;;;;;;;;4.00;3.67;;;;;13.11;73.35;100174.34;5066692;28;45419;-63
2022/11/09 06:22:42;;;;;;;;;2.00;2.00;;;;;13.13;73.38;100172.47;5057131;28;45537;-63
2022/11/09 06:25:07;;;;;;;;;5.67;4.33;;;;;13.12;73.59;100173.44;5075068;28;45485;-63
2022/11/09 06:27:32;;;;;;;;;3.00;3.00;;;;;13.13;73.32;100178.59;5075292;28;45491;-64
2022/11/09 06:29:58;;;;;;;;;3.00;1.33;;;;;13.12;73.49;100181.34;5075186;28;45456;-63
2022/11/09 06:32:23;;;;;;;;;4.00;4.00;;;;;13.10;73.51;100199.91;5074753;28;45627;-63
2022/11/09 06:34:48;;;;;;;;;3.00;2.00;;;;;13.08;73.70;100193.00;5074769;28;45418;-63
2022/11/09 06:37:16;;;;;;;;;3.33;3.33;;;;;13.07;73.54;100189.50;5053113;28;45638;-63
2022/11/09 06:39:42;;;;;;;;;6.00;4.33;;;;;13.07;74.19;100200.06;5071746;28;45435;-63
2022/11/09 06:42:07;;;;;;;;;6.00;4.00;;;;;13.06;74.22;100203.66;5073999;28;45416;-63
2022/11/09 06:44:32;;;;;;;;;4.00;3.00;;;;;13.05;74.23;100207.19;5072841;28;46171;-62
2022/11/09 06:46:58;;;;;;;;;4.00;4.00;;;;;13.07;74.10;100212.41;5077361;28;56715;-63
2022/11/09 06:49:23;;;;;;;;;5.33;3.00;;;;;13.07;74.14;100215.06;5077706;28;45435;-63
2022/11/09 06:51:48;;;;;;;;;6.00;5.00;;;;;13.05;74.37;100209.84;5059396;28;45521;-63
2022/11/09 06:54:14;;;;;;;;;4.00;4.00;;;;;13.08;74.22;100225.53;5077195;28;45955;-62
2022/11/09 06:56:39;;;;;;;;;4.00;4.00;;;;;13.05;74.46;100223.03;5077733;28;45429;-62
2022/11/09 06:59:04;;;;;;;;;5.67;3.00;;;;;13.05;74.47;100217.75;5077543;28;51865;-63
2022/11/09 07:01:30;;;;;;;;;4.67;4.00;;;;;13.07;74.13;100223.81;5077696;28;45567;-63
2022/11/09 07:03:55;;;;;;;;;5.00;5.00;;;;;13.05;74.36;100226.53;5076315;28;46689;-63
2022/11/09 07:06:21;;;;;;;;;3.00;3.00;;;;;13.07;74.51;100230.91;5077543;28;45354;-63
2022/11/09 07:08:46;;;;;;;;;5.00;5.00;;;;;13.07;74.41;100229.09;5077488;28;45473;-63
2022/11/09 07:11:18;;;;;;;;;4.33;3.00;;;;;13.09;74.58;100243.09;5058170;28;45608;-63
2022/11/09 07:13:46;;;;;;;;;5.00;4.00;;;;;13.11;74.06;100243.88;5078067;27;45529;-63
2022/11/09 07:16:11;;;;;;;;;5.67;5.67;;;;;13.13;74.56;100249.06;5077822;28;45545;-64
2022/11/09 07:18:37;;;;;;;;;4.33;4.00;;;;;13.17;74.40;100247.97;5076501;28;45430;-63
2022/11/09 07:21:04;;;;;;;;;6.67;6.00;;;;;13.16;74.88;100262.09;5059853;28;45521;-64
2022/11/09 07:23:29;;;;;;;;;5.00;4.00;;;;;13.19;74.39;100269.84;5076638;28;46679;-63
2022/11/09 07:25:58;;;;;;;;;3.00;3.00;;;;;13.20;74.74;100271.59;5077969;28;45406;-63
2022/11/09 07:28:23;;;;;;;;;3.00;2.67;;;;;13.21;75.12;100276.75;5075660;28;45512;-64
2022/11/09 07:30:51;;;;;;;;;4.33;4.33;;;;;13.24;74.12;100276.63;5077825;28;45452;-63
2022/11/09 07:33:17;;;;;;;;;3.33;3.33;;;;;13.30;74.58;100290.47;5077049;28;46218;-63
2022/11/09 07:35:43;;;;;;;;;3.67;3.67;;;;;13.29;74.41;100278.19;5077229;28;45485;-64
2022/11/09 07:38:09;;;;;;;;;5.00;4.00;;;;;13.30;74.87;100285.19;5076880;28;45465;-60
2022/11/09 07:40:34;;;;;;;;;5.00;5.00;;;;;13.28;74.43;100285.28;5077801;28;45439;-61
2022/11/09 07:43:02;;;;;;;;;4.33;4.33;;;;;13.28;74.52;100280.00;5069436;28;45590;-66
2022/11/09 07:45:28;;;;;;;;;5.33;5.00;;;;;13.29;74.66;100280.84;5077326;28;45323;-66
2022/11/09 07:48:00;;;;;;;;;8.00;6.00;;;;;13.29;74.74;100286.13;5076633;28;45600;-63
2022/11/09 07:50:26;;;;;;;;;4.33;4.00;;;;;13.33;75.41;100279.75;5064198;28;45375;-61
2022/11/09 07:52:53;;;;;;;;;6.33;6.00;;;;;13.34;74.41;100277.03;5076992;28;45509;-61
2022/11/09 07:55:19;;;;;;;;;6.00;6.00;;;;;13.34;74.53;100277.03;5076442;28;45391;-65
2022/11/09 07:57:46;;;;;;;;;5.67;5.67;;;;;13.29;74.56;100275.56;5076927;28;45351;-61
2022/11/09 08:00:11;;;;;;;;;8.33;6.00;;;;;13.32;74.50;100292.09;5077441;28;45631;-61
2022/11/09 08:02:37;;;;;;;;;4.67;3.67;;;;;13.33;74.46;100290.34;5077388;28;46111;-61
2022/11/09 08:05:02;;;;;;;;;5.00;3.67;;;;;13.33;74.47;100291.19;5077234;28;45469;-61
2022/11/09 08:07:28;;;;;;;;;5.00;4.00;;;;;13.34;74.21;100298.16;5077694;28;45376;-61
2022/11/09 08:09:53;;;;;;;;;6.67;5.67;;;;;13.34;74.52;100295.50;5076561;28;45494;-61
2022/11/09 08:12:19;;;;;;;;;6.00;5.00;;;;;13.36;75.37;100298.94;5076809;27;46195;-67
2022/11/09 08:14:44;;;;;;;;;6.00;6.00;;;;;13.38;74.85;100305.00;5075760;28;54698;-66
2022/11/09 08:17:09;;;;;;;;;3.33;3.33;;;;;13.40;74.63;100310.19;5076980;28;45484;-60
2022/11/09 08:19:35;;;;;;;;;4.33;3.00;;;;;13.41;74.87;100319.84;5076145;28;45421;-65
2022/11/09 08:22:00;;;;;;;;;7.67;6.00;;;;;13.40;74.75;100316.31;5076226;28;45963;-60
2022/11/09 08:24:26;;;;;;;;;7.00;5.00;;;;;13.42;74.71;100319.75;5076053;28;45405;-59
2022/11/09 08:26:51;;;;;;;;;2.67;2.67;;;;;13.43;74.39;100316.19;5069888;28;45579;-59
2022/11/09 08:29:16;;;;;;;;;4.67;4.67;;;;;13.42;74.87;100311.81;5076250;28;46924;-59
2022/11/09 08:31:42;;;;;;;;;6.00;6.00;;;;;13.44;74.46;100317.88;5076279;28;45382;-59
2022/11/09 08:34:13;;;;;;;;;3.67;3.33;;;;;13.46;73.86;100312.53;5076398;28;45419;-60
2022/11/09 08:36:39;;;;;;;;;5.00;4.00;;;;;13.48;74.80;100323.84;5076077;28;45418;-59
2022/11/09 08:39:04;;;;;;;;;4.00;4.00;;;;;13.47;74.18;100322.16;5075953;28;45411;-59
2022/11/09 08:41:30;;;;;;;;;5.00;5.00;;;;;13.47;74.84;100324.81;5075759;28;45424;-59
2022/11/09 08:43:55;;;;;;;;;7.33;6.67;;;;;13.46;74.59;100325.75;5076158;28;45355;-59
2022/11/09 08:46:21;;;;;;;;;4.33;4.33;;;;;13.47;74.89;100320.38;5076287;28;45382;-59
2022/11/09 08:48:46;;;;;;;;;6.00;5.00;;;;;13.49;74.75;100325.59;5057475;28;45393;-59
2022/11/09 08:51:11;;;;;;;;;3.33;3.33;;;;;13.51;74.84;100333.41;5057947;28;46116;-60
2022/11/09 08:53:37;;;;;;;;;3.67;3.33;;;;;13.51;74.85;100328.13;5075862;28;45317;-59
2022/11/09 08:56:06;;;;;;;;;3.33;3.33;;;;;13.54;74.80;100346.47;5075801;28;45477;-59
2022/11/09 08:58:31;;;;;;;;;4.33;3.00;;;;;13.58;74.41;100350.66;5075874;28;45402;-59
2022/11/09 09:00:56;;;;;;;;;5.00;5.00;;;;;13.61;74.42;100353.16;5075674;28;45463;-58
2022/11/09 09:03:22;;;;;;;;;3.00;3.00;;;;;13.62;74.09;100360.13;5075584;28;45517;-58
2022/11/09 09:05:47;;;;;;;;;3.00;3.00;;;;;13.63;73.92;100354.78;5075940;28;45371;-61
2022/11/09 09:08:14;;;;;;;;;3.00;3.00;;;;;13.69;74.38;100357.09;5075883;28;45526;-58
2022/11/09 09:10:40;;;;;;;;;4.00;4.00;;;;;13.75;73.88;100368.28;5073814;28;45447;-57
2022/11/09 09:13:05;;;;;;;;;5.33;5.00;;;;;13.78;74.00;100365.47;5055623;28;45747;-59
2022/11/09 09:15:30;;;;;;;;;3.33;2.67;;;;;13.82;74.09;100372.31;5073409;28;45364;-58
2022/11/09 09:17:59;;;;;;;;;4.67;3.67;;;;;13.88;73.60;100364.06;5074926;28;45343;-59
2022/11/09 09:20:25;;;;;;;;;1.33;1.00;;;;;13.91;73.03;100367.38;5076360;28;45537;-60
2022/11/09 09:22:50;;;;;;;;;5.00;4.00;;;;;13.95;72.55;100369.91;5073998;28;45692;-58
2022/11/09 09:25:15;;;;;;;;;4.00;3.00;;;;;13.96;72.70;100375.09;5074482;28;45475;-59
2022/11/09 09:27:43;;;;;;;;;4.00;3.00;;;;;13.99;73.41;100374.91;5071413;28;45447;-59
2022/11/09 09:30:09;;;;;;;;;3.00;3.00;;;;;14.01;72.43;100380.97;5075173;28;45567;-63
2022/11/09 09:32:34;;;;;;;;;3.67;3.67;;;;;14.05;71.95;100381.66;5075478;28;45471;-59
2022/11/09 09:34:59;;;;;;;;;3.33;2.00;;;;;14.03;72.08;100387.06;5074831;28;45483;-60
2022/11/09 09:37:25;;;;;;;;;2.00;2.00;;;;;14.05;72.32;100381.66;5063920;28;45475;-67
2022/11/09 09:39:50;;;;;;;;;4.00;2.67;;;;;14.11;71.51;100391.94;5069867;28;49295;-60
2022/11/09 09:42:23;;;;;;;;;3.00;3.00;;;;;14.12;72.03;100396.28;5068112;28;45333;-61
2022/11/09 09:44:53;;;;;;;;;3.33;2.00;;;;;14.13;71.79;100397.97;5072441;28;45505;-61
2022/11/09 09:47:23;;;;;;;;;4.00;3.00;;;;;14.14;72.13;100397.06;5075527;28;45497;-62
2022/11/09 09:49:58;;;;;;;;;6.67;4.67;;;;;14.16;71.17;100408.41;5062382;28;45493;-62
2022/11/09 09:52:37;;;;;;;;;4.00;3.00;;;;;14.17;71.92;100407.47;5056492;28;45516;-61
2022/11/09 09:55:23;;;;;;;;;7.00;7.00;;;;;14.19;71.63;100408.25;5075677;28;45378;-63
2022/11/09 09:57:54;;;;;;;;;2.33;2.33;;;;;14.19;71.47;100412.69;5075420;28;45679;-62
2022/11/09 10:00:23;;;;;;;;;8.00;6.33;;;;;14.22;71.77;100415.16;5074613;28;46072;-62
2022/11/09 10:02:50;;;;;;;;;3.33;3.33;;;;;14.26;71.71;100411.41;5074603;28;45457;-61
2022/11/09 10:05:18;;;;;;;;;5.00;4.00;;;;;14.27;71.64;100426.38;5075393;28;45398;-62
2022/11/09 10:07:50;;;;;;;;;3.67;2.33;;;;;14.32;71.05;100421.69;5056878;28;45356;-61
2022/11/09 10:10:20;;;;;;;;;5.33;3.00;;;;;14.35;71.08;100424.16;5075253;28;45612;-61
2022/11/09 10:12:45;;;;;;;;;2.67;2.33;;;;;14.40;70.49;100430.06;5074893;28;45410;-61
2022/11/09 10:15:34;;;;;;;;;2.67;2.67;;;;;14.44;70.64;100436.03;5074894;28;45359;-61
2022/11/09 10:18:02;;;;;;;;;3.00;3.00;;;;;14.47;71.03;100433.22;5074652;28;45520;-61
2022/11/09 10:20:59;;;;;;;;;1.00;1.00;;;;;14.45;69.76;100438.56;5057160;28;45546;-61
2022/11/09 10:23:33;;;;;;;;;1.00;1.00;;;;;14.58;70.42;100447.59;5025524;28;45546;-61
2022/11/09 10:26:15;;;;;;;;;4.33;4.33;;;;;14.64;69.30;100450.84;5077633;28;45445;-62
2022/11/09 10:28:41;;;;;;;;;3.33;2.33;;;;;14.68;70.02;100453.25;5078315;28;45449;-62
2022/11/09 10:31:30;;;;;;;;;2.00;2.00;;;;;14.75;68.89;100452.00;5076999;28;45440;-62
2022/11/09 10:34:02;;;;;;;;;5.33;3.00;;;;;14.82;68.16;100459.59;5078236;28;45450;-61
2022/11/09 10:37:02;;;;;;;;;2.33;2.33;;;;;14.79;68.17;100463.25;5077551;28;45520;-62
2022/11/09 10:39:48;;;;;;;;;2.00;2.00;;;;;14.83;67.97;100474.50;5058814;28;45646;-62
2022/11/09 10:42:14;;;;;;;;;3.00;2.00;;;;;14.81;68.51;100466.69;5059330;28;45524;-65
2022/11/09 10:44:39;;;;;;;;;3.00;3.00;;;;;14.80;67.71;100467.59;5058097;28;45573;-60
2022/11/09 10:47:05;;;;;;;;;3.00;3.00;;;;;14.80;67.33;100454.34;5078120;28;45896;-63
2022/11/09 10:49:30;;;;;;;;;3.00;3.00;;;;;14.81;68.18;100458.72;5078241;28;45453;-61
2022/11/09 10:51:56;;;;;;;;;2.00;2.00;;;;;14.83;67.30;100455.97;5077693;28;46001;-60
2022/11/09 10:54:25;;;;;;;;;1.33;1.00;;;;;14.84;67.01;100453.25;5077995;28;45447;-61
2022/11/09 10:57:00;;;;;;;;;3.00;2.00;;;;;14.86;67.00;100469.94;5077969;28;45422;-61
2022/11/09 10:59:45;;;;;;;;;2.33;2.33;;;;;14.88;66.36;100475.13;5077946;28;45410;-61
2022/11/09 11:02:42;;;;;;;;;1.67;1.67;;;;;14.87;66.87;100470.78;5058860;28;45377;-62
2022/11/09 11:05:07;;;;;;;;;2.33;1.00;;;;;14.86;67.02;100469.09;5069239;28;45494;-62
2022/11/09 11:07:34;;;;;;;;;1.67;1.67;;;;;14.86;66.80;100469.09;5078058;28;45425;-61
2022/11/09 11:10:14;;;;;;;;;2.67;2.33;;;;;14.91;67.10;100473.19;5077943;28;45505;-61
2022/11/09 11:13:00;;;;;;;;;3.33;2.00;;;;;14.99;66.54;100480.66;5075170;27;45435;-63
2022/11/09 11:15:34;;;;;;;;;3.33;2.33;;;;;15.07;66.80;100477.59;5059627;28;45559;-63
2022/11/09 11:18:11;;;;;;;;;3.00;2.00;;;;;15.09;66.76;100478.38;5077409;28;45427;-62
2022/11/09 11:20:37;;;;;;;;;2.00;2.00;;;;;15.16;65.78;100477.94;5078304;28;45331;-63
2022/11/09 11:23:13;;;;;;;;;7.00;3.00;;;;;15.17;66.04;100479.66;5077438;28;45401;-63
2022/11/09 11:25:56;;;;;;;;;3.00;3.00;;;;;15.20;66.06;100482.13;5077825;28;45476;-62
2022/11/09 11:28:28;;;;;;;;;4.00;4.00;;;;;15.19;65.71;100479.56;5064411;28;45424;-62